sensor_id;sensor_type;location;lat;lon;timestamp;pressure;altitude;pressure_sealevel;temperature;humidity
17060;BME280;8646;49.716;9.266;2023-02-22T00:00:50;100328.22;;;5.43;91.23
17060;BME280;8646;49.716;9.266;2023-02-22T00:03:53;100333.69;;;5.38;91.27
17060;BME280;8646;49.716;9.266;2023-02-22T00:06:57;100334.69;;;5.34;91.03
17060;BME280;8646;49.716;9.266;2023-02-22T00:10:01;100315.19;;;5.25;91.35
17060;BME280;8646;49.716;9.266;2023-02-22T00:13:07;100324.84;;;5.35;91.27
17060;BME280;8646;49.716;9.266;2023-02-22T00:16:13;100316.84;;;5.32;91.28
17060;BME280;8646;49.716;9.266;2023-02-22T00:19:16;100328.63;;;5.23;91.22
17060;BME280;8646;49.716;9.266;2023-02-22T00:22:21;100322.41;;;5.21;91.19
17060;BME280;8646;49.716;9.266;2023-02-22T00:25:24;100321.56;;;5.19;91.05
17060;BME280;8646;49.716;9.266;2023-02-22T00:28:27;100318.06;;;5.16;91.15
17060;BME280;8646;49.716;9.266;2023-02-22T00:31:36;100315.47;;;5.11;91.23
17060;BME280;8646;49.716;9.266;2023-02-22T00:34:39;100312.84;;;5.10;91.21
17060;BME280;8646;49.716;9.266;2023-02-22T00:37:47;100316.50;;;5.06;91.10
17060;BME280;8646;49.716;9.266;2023-02-22T00:40:50;100317.34;;;5.08;91.67
17060;BME280;8646;49.716;9.266;2023-02-22T00:43:53;100313.78;;;5.07;91.46
17060;BME280;8646;49.716;9.266;2023-02-22T00:46:55;100312.84;;;5.10;91.77
17060;BME280;8646;49.716;9.266;2023-02-22T00:49:59;100310.06;;;5.14;91.58
17060;BME280;8646;49.716;9.266;2023-02-22T00:53:04;100308.22;;;5.16;91.48
17060;BME280;8646;49.716;9.266;2023-02-22T00:56:07;100302.03;;;5.13;91.44
17060;BME280;8646;49.716;9.266;2023-02-22T00:59:10;100312.53;;;5.25;91.31
17060;BME280;8646;49.716;9.266;2023-02-22T01:02:13;100306.25;;;5.24;91.19
17060;BME280;8646;49.716;9.266;2023-02-22T01:05:17;100301.69;;;5.28;91.27
17060;BME280;8646;49.716;9.266;2023-02-22T01:08:23;100301.66;;;5.31;91.03
17060;BME280;8646;49.716;9.266;2023-02-22T01:11:26;100268.00;;;5.15;90.84
17060;BME280;8646;49.716;9.266;2023-02-22T01:14:29;100298.91;;;5.34;91.06
17060;BME280;8646;49.716;9.266;2023-02-22T01:17:31;100294.50;;;5.30;91.37
17060;BME280;8646;49.716;9.266;2023-02-22T01:20:34;100289.09;;;5.33;91.16
17060;BME280;8646;49.716;9.266;2023-02-22T01:23:38;100288.28;;;5.28;91.41
17060;BME280;8646;49.716;9.266;2023-02-22T01:26:41;100282.09;;;5.26;91.74
17060;BME280;8646;49.716;9.266;2023-02-22T01:29:47;100282.09;;;5.26;91.72
17060;BME280;8646;49.716;9.266;2023-02-22T01:32:51;100280.22;;;5.28;92.10
17060;BME280;8646;49.716;9.266;2023-02-22T01:35:53;100279.31;;;5.29;92.22
17060;BME280;8646;49.716;9.266;2023-02-22T01:38:57;100271.34;;;5.26;92.05
17060;BME280;8646;49.716;9.266;2023-02-22T01:42:01;100279.44;;;5.24;91.86
17060;BME280;8646;49.716;9.266;2023-02-22T01:45:38;100267.91;;;5.19;91.77
17060;BME280;8646;49.716;9.266;2023-02-22T01:48:45;100266.94;;;5.23;92.13
17060;BME280;8646;49.716;9.266;2023-02-22T01:51:51;100266.00;;;5.26;92.13
17060;BME280;8646;49.716;9.266;2023-02-22T01:54:57;100278.50;;;5.27;92.18
17060;BME280;8646;49.716;9.266;2023-02-22T01:58:03;100266.78;;;5.29;92.22
17060;BME280;8646;49.716;9.266;2023-02-22T02:01:07;100256.75;;;5.39;92.05
17060;BME280;8646;49.716;9.266;2023-02-22T02:04:14;100256.06;;;5.29;92.20
17060;BME280;8646;49.716;9.266;2023-02-22T02:07:19;100251.59;;;5.28;92.04
17060;BME280;8646;49.716;9.266;2023-02-22T02:10:24;100245.31;;;5.29;92.28
17060;BME280;8646;49.716;9.266;2023-02-22T02:13:27;100247.91;;;5.34;92.33
17060;BME280;8646;49.716;9.266;2023-02-22T02:16:39;100250.47;;;5.40;92.47
17060;BME280;8646;49.716;9.266;2023-02-22T02:19:47;100237.75;;;5.48;92.46
17060;BME280;8646;49.716;9.266;2023-02-22T02:22:56;100242.91;;;5.57;92.53
17060;BME280;8646;49.716;9.266;2023-02-22T02:26:25;100237.31;;;5.66;92.13
17060;BME280;8646;49.716;9.266;2023-02-22T02:33:27;100233.38;;;5.81;91.83
17060;BME280;8646;49.716;9.266;2023-02-22T02:36:51;100232.41;;;5.84;92.22
17060;BME280;8646;49.716;9.266;2023-02-22T02:40:05;100232.19;;;5.93;92.17
17060;BME280;8646;49.716;9.266;2023-02-22T02:43:16;100222.34;;;5.93;92.51
17060;BME280;8646;49.716;9.266;2023-02-22T02:46:25;100221.22;;;6.02;92.41
17060;BME280;8646;49.716;9.266;2023-02-22T02:49:35;100223.94;;;6.00;92.79
17060;BME280;8646;49.716;9.266;2023-02-22T02:52:40;100214.00;;;6.04;92.76
17060;BME280;8646;49.716;9.266;2023-02-22T02:55:43;100211.06;;;6.15;92.88
17060;BME280;8646;49.716;9.266;2023-02-22T02:58:49;100212.69;;;6.20;92.87
17060;BME280;8646;49.716;9.266;2023-02-22T03:02:10;100212.66;;;6.22;93.29
17060;BME280;8646;49.716;9.266;2023-02-22T03:05:33;100208.38;;;6.15;93.73
17060;BME280;8646;49.716;9.266;2023-02-22T03:08:43;100203.09;;;6.10;94.04
17060;BME280;8646;49.716;9.266;2023-02-22T03:11:55;100205.88;;;6.07;94.83
17060;BME280;8646;49.716;9.266;2023-02-22T03:15:11;100192.75;;;6.29;95.28
17060;BME280;8646;49.716;9.266;2023-02-22T03:18:18;100191.88;;;6.28;95.88
17060;BME280;8646;49.716;9.266;2023-02-22T03:21:30;100185.78;;;6.22;96.38
17060;BME280;8646;49.716;9.266;2023-02-22T03:24:40;100176.84;;;6.21;96.94
17060;BME280;8646;49.716;9.266;2023-02-22T03:27:47;100184.81;;;6.24;97.66
17060;BME280;8646;49.716;9.266;2023-02-22T03:30:53;100188.69;;;6.14;97.93
17060;BME280;8646;49.716;9.266;2023-02-22T03:34:02;100184.31;;;6.08;98.93
17060;BME280;8646;49.716;9.266;2023-02-22T03:37:13;100176.22;;;6.10;99.75
17060;BME280;8646;49.716;9.266;2023-02-22T03:40:23;100166.97;;;5.88;100.00
17060;BME280;8646;49.716;9.266;2023-02-22T03:43:30;100170.31;;;5.97;100.00
17060;BME280;8646;49.716;9.266;2023-02-22T03:46:35;100175.78;;;5.93;100.00
17060;BME280;8646;49.716;9.266;2023-02-22T03:49:45;100170.75;;;5.79;100.00
17060;BME280;8646;49.716;9.266;2023-02-22T03:52:52;100172.50;;;5.82;100.00
17060;BME280;8646;49.716;9.266;2023-02-22T03:55:56;100170.88;;;5.74;100.00
17060;BME280;8646;49.716;9.266;2023-02-22T03:59:01;100166.09;;;5.86;100.00
17060;BME280;8646;49.716;9.266;2023-02-22T04:02:05;100146.13;;;5.62;100.00
17060;BME280;8646;49.716;9.266;2023-02-22T04:05:08;100169.22;;;5.69;100.00
17060;BME280;8646;49.716;9.266;2023-02-22T04:08:12;100168.19;;;5.74;100.00
17060;BME280;8646;49.716;9.266;2023-02-22T04:11:15;100174.72;;;5.64;100.00
17060;BME280;8646;49.716;9.266;2023-02-22T04:14:18;100171.88;;;5.70;100.00
17060;BME280;8646;49.716;9.266;2023-02-22T04:17:24;100172.88;;;5.66;100.00
17060;BME280;8646;49.716;9.266;2023-02-22T04:20:26;100168.13;;;5.76;100.00
17060;BME280;8646;49.716;9.266;2023-02-22T04:23:31;100161.06;;;5.73;100.00
17060;BME280;8646;49.716;9.266;2023-02-22T04:26:33;100161.75;;;5.82;100.00
17060;BME280;8646;49.716;9.266;2023-02-22T04:29:36;100166.50;;;5.70;100.00
17060;BME280;8646;49.716;9.266;2023-02-22T04:32:39;100157.47;;;5.74;100.00
17060;BME280;8646;49.716;9.266;2023-02-22T04:35:41;100167.50;;;5.66;100.00
17060;BME280;8646;49.716;9.266;2023-02-22T04:38:46;100160.72;;;5.86;100.00
17060;BME280;8646;49.716;9.266;2023-02-22T04:41:48;100156.41;;;5.80;100.00
17060;BME280;8646;49.716;9.266;2023-02-22T04:44:52;100165.38;;;5.79;100.00
17060;BME280;8646;49.716;9.266;2023-02-22T04:47:55;100156.72;;;5.68;100.00
17060;BME280;8646;49.716;9.266;2023-02-22T04:50:57;100161.84;;;5.77;100.00
17060;BME280;8646;49.716;9.266;2023-02-22T04:54:03;100161.75;;;5.82;100.00
17060;BME280;8646;49.716;9.266;2023-02-22T04:57:05;100153.75;;;5.79;100.00
17060;BME280;8646;49.716;9.266;2023-02-22T05:00:09;100154.78;;;5.74;100.00
17060;BME280;8646;49.716;9.266;2023-02-22T05:03:12;100157.72;;;5.64;100.00
17060;BME280;8646;49.716;9.266;2023-02-22T05:06:16;100145.19;;;5.64;100.00
17060;BME280;8646;49.716;9.266;2023-02-22T05:09:20;100143.13;;;5.75;100.00
17060;BME280;8646;49.716;9.266;2023-02-22T05:12:25;100150.38;;;5.70;100.00
17060;BME280;8646;49.716;9.266;2023-02-22T05:15:28;100146.81;;;5.70;100.00
17060;BME280;8646;49.716;9.266;2023-02-22T05:18:31;100151.44;;;5.65;100.00
17060;BME280;8646;49.716;9.266;2023-02-22T05:21:34;100153.50;;;5.54;100.00
17060;BME280;8646;49.716;9.266;2023-02-22T05:24:38;100154.22;;;5.60;100.00
17060;BME280;8646;49.716;9.266;2023-02-22T05:27:40;100146.78;;;5.71;100.00
17060;BME280;8646;49.716;9.266;2023-02-22T05:30:43;100142.25;;;5.73;100.00
17060;BME280;8646;49.716;9.266;2023-02-22T05:33:46;100141.34;;;5.74;100.00
17060;BME280;8646;49.716;9.266;2023-02-22T05:36:49;100135.88;;;5.78;100.00
17060;BME280;8646;49.716;9.266;2023-02-22T05:39:54;100139.59;;;5.73;100.00
17060;BME280;8646;49.716;9.266;2023-02-22T05:42:57;100133.19;;;5.78;100.00
17060;BME280;8646;49.716;9.266;2023-02-22T05:46:01;100134.03;;;5.80;100.00
17060;BME280;8646;49.716;9.266;2023-02-22T05:49:04;100134.13;;;5.76;100.00
17060;BME280;8646;49.716;9.266;2023-02-22T05:52:07;100134.13;;;5.76;100.00
17060;BME280;8646;49.716;9.266;2023-02-22T05:55:13;100128.84;;;5.73;100.00
17060;BME280;8646;49.716;9.266;2023-02-22T05:58:16;100134.06;;;5.78;100.00
17060;BME280;8646;49.716;9.266;2023-02-22T06:01:20;100131.34;;;5.80;100.00
17060;BME280;8646;49.716;9.266;2023-02-22T06:04:23;100127.81;;;5.78;100.00
17060;BME280;8646;49.716;9.266;2023-02-22T06:07:26;100137.31;;;5.92;100.00
17060;BME280;8646;49.716;9.266;2023-02-22T06:10:30;100137.44;;;5.88;100.00
17060;BME280;8646;49.716;9.266;2023-02-22T06:13:33;100145.50;;;5.86;100.00
17060;BME280;8646;49.716;9.266;2023-02-22T06:16:36;100142.75;;;5.91;100.00
17060;BME280;8646;49.716;9.266;2023-02-22T06:19:38;100143.66;;;5.90;100.00
17060;BME280;8646;49.716;9.266;2023-02-22T06:22:41;100148.13;;;5.91;100.00
17060;BME280;8646;49.716;9.266;2023-02-22T06:25:47;100138.09;;;5.97;100.00
17060;BME280;8646;49.716;9.266;2023-02-22T06:28:50;100136.38;;;5.93;100.00
17060;BME280;8646;49.716;9.266;2023-02-22T06:31:53;100145.44;;;5.91;100.00
17060;BME280;8646;49.716;9.266;2023-02-22T06:34:56;100116.00;;;5.85;100.00
17060;BME280;8646;49.716;9.266;2023-02-22T06:37:59;100146.00;;;6.02;100.00
17060;BME280;8646;49.716;9.266;2023-02-22T06:41:03;100146.00;;;6.02;100.00
17060;BME280;8646;49.716;9.266;2023-02-22T06:44:07;100131.00;;;5.93;100.00
17060;BME280;8646;49.716;9.266;2023-02-22T06:47:11;100148.84;;;5.97;100.00
17060;BME280;8646;49.716;9.266;2023-02-22T06:50:20;100152.16;;;6.07;100.00
17060;BME280;8646;49.716;9.266;2023-02-22T06:53:23;100137.03;;;6.03;100.00
17060;BME280;8646;49.716;9.266;2023-02-22T06:56:28;100152.00;;;6.11;100.00
17060;BME280;8646;49.716;9.266;2023-02-22T06:59:30;100154.50;;;6.19;100.00
17060;BME280;8646;49.716;9.266;2023-02-22T07:02:33;100162.56;;;6.19;100.00
17060;BME280;8646;49.716;9.266;2023-02-22T07:05:36;100157.88;;;6.26;100.00
17060;BME280;8646;49.716;9.266;2023-02-22T07:08:39;100163.16;;;6.30;100.00
17060;BME280;8646;49.716;9.266;2023-02-22T07:11:43;100164.69;;;6.39;100.00
17060;BME280;8646;49.716;9.266;2023-02-22T07:14:46;100160.09;;;6.42;100.00
17060;BME280;8646;49.716;9.266;2023-02-22T07:17:48;100165.22;;;6.51;100.00
17060;BME280;8646;49.716;9.266;2023-02-22T07:20:51;100152.41;;;6.61;100.00
17060;BME280;8646;49.716;9.266;2023-02-22T07:23:55;100166.00;;;6.57;100.00
17060;BME280;8646;49.716;9.266;2023-02-22T07:27:01;100161.59;;;6.53;100.00
17060;BME280;8646;49.716;9.266;2023-02-22T07:30:05;100162.47;;;6.55;100.00
17060;BME280;8646;49.716;9.266;2023-02-22T07:33:10;100167.38;;;6.70;100.00
17060;BME280;8646;49.716;9.266;2023-02-22T07:36:13;100165.53;;;6.72;100.00
17060;BME280;8646;49.716;9.266;2023-02-22T07:39:18;100168.97;;;6.77;100.00
17060;BME280;8646;49.716;9.266;2023-02-22T07:42:22;100172.63;;;6.74;100.00
17060;BME280;8646;49.716;9.266;2023-02-22T07:45:27;100175.41;;;6.71;100.00
17060;BME280;8646;49.716;9.266;2023-02-22T07:48:30;100175.84;;;6.87;100.00
17060;BME280;8646;49.716;9.266;2023-02-22T07:51:33;100171.16;;;6.94;100.00
17060;BME280;8646;49.716;9.266;2023-02-22T07:54:36;100170.47;;;6.87;100.00
17060;BME280;8646;49.716;9.266;2023-02-22T07:57:40;100161.00;;;7.03;100.00
17060;BME280;8646;49.716;9.266;2023-02-22T08:00:43;100168.22;;;7.01;100.00
17060;BME280;8646;49.716;9.266;2023-02-22T08:03:47;100164.41;;;7.08;100.00
17060;BME280;8646;49.716;9.266;2023-02-22T08:06:50;100156.28;;;7.10;100.00
17060;BME280;8646;49.716;9.266;2023-02-22T08:09:53;100161.41;;;7.19;100.00
17060;BME280;8646;49.716;9.266;2023-02-22T08:12:57;100157.63;;;7.24;99.92
17060;BME280;8646;49.716;9.266;2023-02-22T08:16:02;100155.69;;;7.30;100.00
17060;BME280;8646;49.716;9.266;2023-02-22T08:19:05;100159.13;;;7.33;100.00
17060;BME280;8646;49.716;9.266;2023-02-22T08:22:07;100149.88;;;7.42;99.82
17060;BME280;8646;49.716;9.266;2023-02-22T08:25:10;100156.94;;;7.46;99.80
17060;BME280;8646;49.716;9.266;2023-02-22T08:28:17;100152.19;;;7.54;99.38
17060;BME280;8646;49.716;9.266;2023-02-22T08:31:20;100150.94;;;7.64;98.58
17060;BME280;8646;49.716;9.266;2023-02-22T08:34:23;100149.75;;;7.73;97.69
17060;BME280;8646;49.716;9.266;2023-02-22T08:37:26;100151.47;;;7.75;98.33
17060;BME280;8646;49.716;9.266;2023-02-22T08:40:31;100145.19;;;7.75;97.52
17060;BME280;8646;49.716;9.266;2023-02-22T08:43:36;100136.91;;;7.81;97.12
17060;BME280;8646;49.716;9.266;2023-02-22T08:46:39;100140.16;;;7.90;97.17
17060;BME280;8646;49.716;9.266;2023-02-22T08:49:42;100136.00;;;8.07;97.01
17060;BME280;8646;49.716;9.266;2023-02-22T08:52:45;100134.50;;;8.23;96.58
17060;BME280;8646;49.716;9.266;2023-02-22T08:55:48;100125.59;;;8.46;95.50
17060;BME280;8646;49.716;9.266;2023-02-22T08:58:52;100123.34;;;8.58;94.05
17060;BME280;8646;49.716;9.266;2023-02-22T09:01:56;100131.25;;;8.63;94.32
17060;BME280;8646;49.716;9.266;2023-02-22T09:04:59;100128.16;;;8.73;93.32
17060;BME280;8646;49.716;9.266;2023-02-22T09:08:03;100126.84;;;8.60;93.34
17060;BME280;8646;49.716;9.266;2023-02-22T09:11:06;100126.94;;;8.59;93.97
17060;BME280;8646;49.716;9.266;2023-02-22T09:14:10;100129.78;;;8.77;91.69
17060;BME280;8646;49.716;9.266;2023-02-22T09:17:15;100125.31;;;8.53;93.03
17060;BME280;8646;49.716;9.266;2023-02-22T09:20:20;100116.19;;;8.57;92.32
17060;BME280;8646;49.716;9.266;2023-02-22T09:23:24;100126.09;;;8.57;93.14
17060;BME280;8646;49.716;9.266;2023-02-22T09:26:27;100132.38;;;8.57;93.04
17060;BME280;8646;49.716;9.266;2023-02-22T09:29:31;100129.78;;;8.77;91.67
17060;BME280;8646;49.716;9.266;2023-02-22T09:32:35;100124.75;;;8.92;90.77
17060;BME280;8646;49.716;9.266;2023-02-22T09:35:39;100117.34;;;8.97;91.06
17060;BME280;8646;49.716;9.266;2023-02-22T09:38:43;100120.56;;;9.06;90.18
17060;BME280;8646;49.716;9.266;2023-02-22T09:41:51;100108.31;;;9.19;89.42
17060;BME280;8646;49.716;9.266;2023-02-22T09:45:02;100103.34;;;9.09;89.61
17060;BME280;8646;49.716;9.266;2023-02-22T09:48:14;100106.75;;;9.14;89.35
17060;BME280;8646;49.716;9.266;2023-02-22T09:51:24;100099.72;;;9.10;89.67
17060;BME280;8646;49.716;9.266;2023-02-22T09:54:31;100104.78;;;8.96;91.30
17060;BME280;8646;49.716;9.266;2023-02-22T09:57:39;100095.44;;;9.26;89.53
17060;BME280;8646;49.716;9.266;2023-02-22T10:00:47;100093.53;;;9.08;90.69
17060;BME280;8646;49.716;9.266;2023-02-22T10:03:57;100093.84;;;9.22;90.20
17060;BME280;8646;49.716;9.266;2023-02-22T10:07:05;100086.41;;;9.27;89.21
17060;BME280;8646;49.716;9.266;2023-02-22T10:10:15;100082.66;;;9.31;88.84
17060;BME280;8646;49.716;9.266;2023-02-22T10:13:24;100085.44;;;9.08;90.01
17060;BME280;8646;49.716;9.266;2023-02-22T10:16:35;100080.97;;;9.07;89.92
17060;BME280;8646;49.716;9.266;2023-02-22T10:19:50;100069.28;;;9.06;89.35
17060;BME280;8646;49.716;9.266;2023-02-22T10:23:04;100082.84;;;9.05;90.41
17060;BME280;8646;49.716;9.266;2023-02-22T10:26:15;100075.41;;;8.88;91.32
17060;BME280;8646;49.716;9.266;2023-02-22T10:29:24;100083.16;;;8.97;91.67
17060;BME280;8646;49.716;9.266;2023-02-22T10:32:36;100079.72;;;9.15;90.54
17060;BME280;8646;49.716;9.266;2023-02-22T10:35:44;100063.06;;;9.26;90.02
17060;BME280;8646;49.716;9.266;2023-02-22T10:38:52;100068.34;;;9.29;89.66
17060;BME280;8646;49.716;9.266;2023-02-22T10:41:58;100065.56;;;9.31;89.65
17060;BME280;8646;49.716;9.266;2023-02-22T10:45:18;100066.47;;;9.31;89.34
17060;BME280;8646;49.716;9.266;2023-02-22T10:48:25;100055.50;;;9.34;89.38
17060;BME280;8646;49.716;9.266;2023-02-22T10:51:29;100058.34;;;9.31;89.84
17060;BME280;8646;49.716;9.266;2023-02-22T10:54:34;100053.19;;;9.25;89.70
17060;BME280;8646;49.716;9.266;2023-02-22T10:57:38;100044.03;;;9.29;90.03
17060;BME280;8646;49.716;9.266;2023-02-22T11:00:42;100055.16;;;9.22;90.02
17060;BME280;8646;49.716;9.266;2023-02-22T11:04:00;100047.34;;;9.36;90.14
17060;BME280;8646;49.716;9.266;2023-02-22T11:07:09;100046.34;;;9.38;89.90
17060;BME280;8646;49.716;9.266;2023-02-22T11:10:29;100045.97;;;9.47;89.19
17060;BME280;8646;49.716;9.266;2023-02-22T11:13:39;100042.31;;;9.48;89.03
17060;BME280;8646;49.716;9.266;2023-02-22T11:16:46;100043.19;;;9.49;89.59
17060;BME280;8646;49.716;9.266;2023-02-22T11:19:53;100041.03;;;9.57;89.31
17060;BME280;8646;49.716;9.266;2023-02-22T11:22:58;100036.38;;;9.61;88.44
17060;BME280;8646;49.716;9.266;2023-02-22T11:26:06;100032.13;;;9.55;89.07
17060;BME280;8646;49.716;9.266;2023-02-22T11:29:16;100018.13;;;9.66;88.87
17060;BME280;8646;49.716;9.266;2023-02-22T11:32:20;99995.09;;;9.57;88.34
17060;BME280;8646;49.716;9.266;2023-02-22T11:35:36;100019.44;;;9.77;87.43
17060;BME280;8646;49.716;9.266;2023-02-22T11:38:52;100013.16;;;9.77;88.09
17060;BME280;8646;49.716;9.266;2023-02-22T11:41:55;100008.88;;;9.91;87.34
17060;BME280;8646;49.716;9.266;2023-02-22T11:45:08;100005.69;;;10.02;87.03
17060;BME280;8646;49.716;9.266;2023-02-22T11:48:18;99999.72;;;10.14;86.06
17060;BME280;8646;49.716;9.266;2023-02-22T11:51:37;99986.25;;;10.33;85.16
17060;BME280;8646;49.716;9.266;2023-02-22T11:55:07;99985.09;;;10.39;84.39
17060;BME280;8646;49.716;9.266;2023-02-22T11:58:42;99978.53;;;10.44;84.61
17060;BME280;8646;49.716;9.266;2023-02-22T12:01:51;99985.47;;;10.50;84.38
17060;BME280;8646;49.716;9.266;2023-02-22T12:05:18;99977.06;;;10.56;84.51
17060;BME280;8646;49.716;9.266;2023-02-22T12:08:36;99965.22;;;10.77;83.70
17060;BME280;8646;49.716;9.266;2023-02-22T12:11:52;99957.66;;;10.84;83.62
17060;BME280;8646;49.716;9.266;2023-02-22T12:15:02;99960.75;;;10.76;83.35
17060;BME280;8646;49.716;9.266;2023-02-22T12:18:12;99963.63;;;10.90;83.43
17060;BME280;8646;49.716;9.266;2023-02-22T12:21:22;99965.25;;;10.94;83.14
17060;BME280;8646;49.716;9.266;2023-02-22T12:24:33;99965.25;;;10.94;83.00
17060;BME280;8646;49.716;9.266;2023-02-22T12:27:40;99952.50;;;10.96;82.81
17060;BME280;8646;49.716;9.266;2023-02-22T12:30:50;99952.34;;;10.99;82.20
17060;BME280;8646;49.716;9.266;2023-02-22T12:33:59;99951.78;;;10.93;82.92
17060;BME280;8646;49.716;9.266;2023-02-22T12:37:14;99945.19;;;10.98;83.03
17060;BME280;8646;49.716;9.266;2023-02-22T12:40:23;99926.94;;;11.19;81.87
17060;BME280;8646;49.716;9.266;2023-02-22T12:43:31;99932.63;;;11.32;81.40
17060;BME280;8646;49.716;9.266;2023-02-22T12:46:37;99931.97;;;11.44;80.06
17060;BME280;8646;49.716;9.266;2023-02-22T12:49:45;99924.34;;;11.35;81.78
17060;BME280;8646;49.716;9.266;2023-02-22T12:52:52;99924.81;;;11.43;80.75
17060;BME280;8646;49.716;9.266;2023-02-22T12:56:11;99912.22;;;11.42;80.80
17060;BME280;8646;49.716;9.266;2023-02-22T12:59:20;99919.47;;;11.59;80.66
17060;BME280;8646;49.716;9.266;2023-02-22T13:02:28;99921.53;;;11.54;80.23
17060;BME280;8646;49.716;9.266;2023-02-22T13:05:35;99915.22;;;11.70;79.37
17060;BME280;8646;49.716;9.266;2023-02-22T13:08:47;99903.75;;;11.65;79.66
17060;BME280;8646;49.716;9.266;2023-02-22T13:12:02;99909.50;;;11.76;79.96
17060;BME280;8646;49.716;9.266;2023-02-22T13:15:15;99892.13;;;11.80;79.30
17060;BME280;8646;49.716;9.266;2023-02-22T13:18:26;99904.91;;;11.94;78.82
17060;BME280;8646;49.716;9.266;2023-02-22T13:21:41;99903.72;;;12.00;79.28
17060;BME280;8646;49.716;9.266;2023-02-22T13:24:57;99895.31;;;12.04;78.36
17060;BME280;8646;49.716;9.266;2023-02-22T13:28:19;99891.56;;;12.07;79.17
17060;BME280;8646;49.716;9.266;2023-02-22T13:31:41;99890.94;;;12.17;78.70
17060;BME280;8646;49.716;9.266;2023-02-22T13:35:13;99885.72;;;12.30;78.19
17060;BME280;8646;49.716;9.266;2023-02-22T13:38:44;99860.59;;;12.27;77.41
17060;BME280;8646;49.716;9.266;2023-02-22T13:42:00;99876.63;;;12.47;77.40
17060;BME280;8646;49.716;9.266;2023-02-22T13:49:14;99865.25;;;12.56;76.75
17060;BME280;8646;49.716;9.266;2023-02-22T13:52:23;99870.31;;;12.62;76.88
17060;BME280;8646;49.716;9.266;2023-02-22T13:55:31;99869.78;;;12.55;76.96
17060;BME280;8646;49.716;9.266;2023-02-22T13:58:46;99858.94;;;12.55;77.06
17060;BME280;8646;49.716;9.266;2023-02-22T14:01:51;99864.16;;;12.58;77.00
17060;BME280;8646;49.716;9.266;2023-02-22T14:04:55;99864.97;;;12.60;77.12
17060;BME280;8646;49.716;9.266;2023-02-22T14:07:58;99868.72;;;12.58;76.54
17060;BME280;8646;49.716;9.266;2023-02-22T14:11:01;99858.28;;;12.66;76.62
17060;BME280;8646;49.716;9.266;2023-02-22T14:14:13;99867.31;;;12.67;76.70
17060;BME280;8646;49.716;9.266;2023-02-22T14:17:26;99853.19;;;12.76;76.50
17060;BME280;8646;49.716;9.266;2023-02-22T14:20:31;99845.06;;;12.76;76.69
17060;BME280;8646;49.716;9.266;2023-02-22T14:23:37;99837.94;;;12.73;76.88
17060;BME280;8646;49.716;9.266;2023-02-22T14:26:53;99848.19;;;12.84;76.75
17060;BME280;8646;49.716;9.266;2023-02-22T14:29:57;99842.03;;;12.96;75.83
17060;BME280;8646;49.716;9.266;2023-02-22T14:33:03;99830.09;;;12.98;75.43
17060;BME280;8646;49.716;9.266;2023-02-22T14:36:28;99835.03;;;12.92;76.26
17060;BME280;8646;49.716;9.266;2023-02-22T14:39:36;99833.22;;;13.07;75.31
17060;BME280;8646;49.716;9.266;2023-02-22T14:42:44;99840.47;;;12.92;75.89
17060;BME280;8646;49.716;9.266;2023-02-22T14:45:51;99816.84;;;12.78;76.58
17060;BME280;8646;49.716;9.266;2023-02-22T14:48:59;99829.59;;;12.92;76.81
17060;BME280;8646;49.716;9.266;2023-02-22T14:52:13;99827.44;;;12.83;77.39
17060;BME280;8646;49.716;9.266;2023-02-22T14:55:21;99825.41;;;12.86;76.58
17060;BME280;8646;49.716;9.266;2023-02-22T14:58:30;99821.03;;;12.84;76.57
17060;BME280;8646;49.716;9.266;2023-02-22T15:01:36;99813.34;;;12.76;76.99
17060;BME280;8646;49.716;9.266;2023-02-22T15:04:57;99821.25;;;12.81;76.93
17060;BME280;8646;49.716;9.266;2023-02-22T15:08:04;99828.69;;;12.77;77.31
17060;BME280;8646;49.716;9.266;2023-02-22T15:11:19;99824.13;;;12.78;77.30
17060;BME280;8646;49.716;9.266;2023-02-22T15:14:24;99831.09;;;12.82;77.46
17060;BME280;8646;49.716;9.266;2023-02-22T15:17:27;99825.59;;;12.83;76.93
17060;BME280;8646;49.716;9.266;2023-02-22T15:20:33;99821.91;;;12.84;77.08
17060;BME280;8646;49.716;9.266;2023-02-22T15:23:42;99833.56;;;12.86;76.97
17060;BME280;8646;49.716;9.266;2023-02-22T15:26:46;99819.97;;;12.86;77.02
17060;BME280;8646;49.716;9.266;2023-02-22T15:30:04;99823.75;;;12.84;77.71
17060;BME280;8646;49.716;9.266;2023-02-22T15:33:13;99820.44;;;12.79;77.75
17060;BME280;8646;49.716;9.266;2023-02-22T15:36:19;99831.69;;;12.73;78.12
17060;BME280;8646;49.716;9.266;2023-02-22T15:39:25;99822.75;;;12.71;78.13
17060;BME280;8646;49.716;9.266;2023-02-22T15:42:29;99822.81;;;12.69;77.90
17060;BME280;8646;49.716;9.266;2023-02-22T15:45:32;99797.03;;;12.46;78.42
17060;BME280;8646;49.716;9.266;2023-02-22T15:48:35;99820.56;;;12.61;77.81
17060;BME280;8646;49.716;9.266;2023-02-22T15:51:43;99820.22;;;12.52;78.30
17060;BME280;8646;49.716;9.266;2023-02-22T15:54:50;99830.75;;;12.42;78.97
17060;BME280;8646;49.716;9.266;2023-02-22T15:57:55;99824.72;;;12.37;78.93
17060;BME280;8646;49.716;9.266;2023-02-22T16:01:00;99796.19;;;12.14;79.17
17060;BME280;8646;49.716;9.266;2023-02-22T16:04:04;99832.66;;;12.24;79.74
17060;BME280;8646;49.716;9.266;2023-02-22T16:07:12;99833.09;;;12.17;80.05
17060;BME280;8646;49.716;9.266;2023-02-22T16:10:21;99826.19;;;12.11;79.96
17060;BME280;8646;49.716;9.266;2023-02-22T16:13:32;99827.94;;;11.97;80.63
17060;BME280;8646;49.716;9.266;2023-02-22T16:16:37;99831.78;;;11.93;81.39
17060;BME280;8646;49.716;9.266;2023-02-22T16:19:42;99833.00;;;11.87;81.82
17060;BME280;8646;49.716;9.266;2023-02-22T16:22:48;99829.69;;;11.82;81.75
17060;BME280;8646;49.716;9.266;2023-02-22T16:26:04;99828.28;;;11.91;81.82
17060;BME280;8646;49.716;9.266;2023-02-22T16:29:08;99836.94;;;11.81;82.33
17060;BME280;8646;49.716;9.266;2023-02-22T16:32:11;99826.81;;;11.68;82.64
17060;BME280;8646;49.716;9.266;2023-02-22T16:35:16;99838.38;;;11.71;82.96
17060;BME280;8646;49.716;9.266;2023-02-22T16:38:20;99842.31;;;11.66;83.03
17060;BME280;8646;49.716;9.266;2023-02-22T16:41:23;99843.34;;;11.63;83.42
17060;BME280;8646;49.716;9.266;2023-02-22T16:44:27;99842.00;;;11.55;83.26
17060;BME280;8646;49.716;9.266;2023-02-22T16:47:30;99846.34;;;11.41;84.00